Time;durP1;ratioP1;P1;durP2;ratioP2;P2;SDS_P1;SDS_P2;PMS_P1;PMS_P2;Temp;Humidity;BMP_temperature;BMP_pressure;BME280_temperature;BME280_humidity;BME280_pressure;Samples;Min_cycle;Max_cycle;Signal;HPM_P1;HPM_P2
2023/11/03 00:00:51;;;;;;;2.28;0.50;;;8.70;99.90;;;;;;4998867;28;20112;-74
2023/11/03 00:03:17;;;;;;;6.13;0.63;;;8.70;99.90;;;;;;4987951;28;20154;-75
2023/11/03 00:05:42;;;;;;;2.53;0.43;;;8.70;99.90;;;;;;4986870;28;20554;-74
2023/11/03 00:08:08;;;;;;;2.78;0.30;;;8.70;99.90;;;;;;4987932;28;20030;-74
2023/11/03 00:10:36;;;;;;;2.75;0.55;;;8.70;99.90;;;;;;4986659;28;20407;-75
2023/11/03 00:13:02;;;;;;;1.55;0.63;;;8.70;99.90;;;;;;4978094;28;20436;-74
2023/11/03 00:15:27;;;;;;;4.03;0.50;;;8.60;99.90;;;;;;4975567;28;20039;-75
2023/11/03 00:17:53;;;;;;;1.30;0.80;;;8.60;99.90;;;;;;4977804;28;20518;-75
2023/11/03 00:20:19;;;;;;;3.03;0.20;;;8.60;99.90;;;;;;4975718;28;20026;-75
2023/11/03 00:22:45;;;;;;;2.78;0.40;;;8.60;99.90;;;;;;4986318;28;20381;-74
2023/11/03 00:25:13;;;;;;;2.97;0.65;;;8.60;99.90;;;;;;4983155;28;20039;-77
2023/11/03 00:27:42;;;;;;;0.90;0.40;;;8.60;99.90;;;;;;4976104;28;20073;-76
2023/11/03 00:30:09;;;;;;;0.82;0.20;;;8.60;99.90;;;;;;4977017;28;20046;-74
2023/11/03 00:32:35;;;;;;;5.07;0.30;;;8.60;99.90;;;;;;4979174;28;20520;-74
2023/11/03 00:35:01;;;;;;;13.98;0.80;;;8.60;99.90;;;;;;4980237;28;20105;-76
2023/11/03 00:37:27;;;;;;;1.05;0.20;;;8.60;99.90;;;;;;4975867;28;20038;-76
2023/11/03 00:39:53;;;;;;;1.02;0.30;;;8.60;99.90;;;;;;4967340;28;20078;-77
2023/11/03 00:42:19;;;;;;;3.28;0.45;;;8.60;99.90;;;;;;4973823;28;20039;-74
2023/11/03 00:44:44;;;;;;;2.95;0.40;;;8.60;99.90;;;;;;5002775;28;20046;-75
2023/11/03 00:47:10;;;;;;;3.08;0.30;;;8.50;99.90;;;;;;5003954;28;20038;-73
2023/11/03 00:49:37;;;;;;;5.43;0.52;;;8.50;99.90;;;;;;5003024;28;20022;-73
2023/11/03 00:52:06;;;;;;;2.33;0.20;;;8.50;99.90;;;;;;5004089;28;20087;-74
2023/11/03 00:54:33;;;;;;;0.93;0.30;;;8.50;99.90;;;;;;5003198;28;20073;-73
2023/11/03 00:57:00;;;;;;;2.65;0.55;;;8.50;99.90;;;;;;4987301;28;20089;-73
2023/11/03 00:59:26;;;;;;;3.20;0.30;;;8.50;99.90;;;;;;4988539;28;20026;-73
2023/11/03 01:01:51;;;;;;;5.43;0.40;;;8.50;99.90;;;;;;4986590;28;20031;-76
2023/11/03 01:04:17;;;;;;;1.55;0.30;;;8.50;99.90;;;;;;4987083;28;20042;-76
2023/11/03 01:06:42;;;;;;;2.17;0.45;;;8.60;99.90;;;;;;4985756;28;20496;-76
2023/11/03 01:09:09;;;;;;;4.60;0.40;;;8.50;99.90;;;;;;4984572;28;20061;-73
2023/11/03 01:11:36;;;;;;;1.98;0.22;;;8.50;99.90;;;;;;4990668;28;20048;-77
2023/11/03 01:14:05;;;;;;;2.28;0.20;;;8.50;99.90;;;;;;4972073;28;20039;-75
2023/11/03 01:16:33;;;;;;;3.00;0.60;;;8.60;99.90;;;;;;4979719;28;20077;-74
2023/11/03 01:19:04;;;;;;;5.22;0.57;;;8.60;99.90;;;;;;4979768;28;20038;-74
2023/11/03 01:21:31;;;;;;;5.40;1.38;;;8.60;99.90;;;;;;4982573;28;20491;-75
2023/11/03 01:23:56;;;;;;;1.00;0.30;;;8.60;99.90;;;;;;4986980;28;20053;-75
2023/11/03 01:26:25;;;;;;;0.75;0.40;;;8.60;99.90;;;;;;4988959;28;21625;-74
2023/11/03 01:28:51;;;;;;;1.95;0.50;;;8.60;99.90;;;;;;4986702;28;20042;-75
2023/11/03 01:31:17;;;;;;;12.30;1.10;;;8.60;99.90;;;;;;4985819;28;20053;-73
2023/11/03 01:33:43;;;;;;;4.00;1.15;;;8.60;99.90;;;;;;4986009;28;20066;-76
2023/11/03 01:36:09;;;;;;;1.63;0.20;;;8.60;99.90;;;;;;4986985;28;20045;-74
2023/11/03 01:38:35;;;;;;;0.68;0.35;;;8.60;99.90;;;;;;4988022;28;20038;-74
2023/11/03 01:41:04;;;;;;;4.53;0.57;;;8.60;99.90;;;;;;4986313;28;20073;-75
2023/11/03 01:43:30;;;;;;;5.95;0.60;;;8.60;99.90;;;;;;4985592;28;20049;-73
2023/11/03 01:45:56;;;;;;;4.57;0.57;;;8.70;99.90;;;;;;4986360;28;20030;-73
2023/11/03 01:48:29;;;;;;;5.75;1.40;;;8.70;99.90;;;;;;4987664;28;20038;-73
2023/11/03 01:50:58;;;;;;;9.98;0.40;;;8.70;99.90;;;;;;4985991;28;20109;-73
2023/11/03 01:53:25;;;;;;;10.35;0.60;;;8.70;99.90;;;;;;4999727;28;20502;-75
2023/11/03 01:55:51;;;;;;;3.88;0.55;;;8.70;99.90;;;;;;4965999;28;20035;-74
2023/11/03 01:58:16;;;;;;;2.80;0.50;;;8.70;99.90;;;;;;4968458;28;20122;-75
2023/11/03 02:00:42;;;;;;;3.28;0.88;;;8.70;99.90;;;;;;4967188;28;20436;-73
2023/11/03 02:03:08;;;;;;;3.55;0.70;;;8.70;99.90;;;;;;4968527;28;20488;-74
2023/11/03 02:05:33;;;;;;;3.53;0.60;;;8.70;99.90;;;;;;4966569;28;20106;-75
2023/11/03 02:07:59;;;;;;;3.58;0.50;;;8.70;99.90;;;;;;4966239;28;20032;-73
2023/11/03 02:10:24;;;;;;;5.80;0.90;;;8.70;99.90;;;;;;4972508;28;20034;-75
2023/11/03 02:12:50;;;;;;;2.83;0.60;;;8.70;99.90;;;;;;4970871;28;20023;-74
2023/11/03 02:15:16;;;;;;;2.95;0.63;;;8.70;99.90;;;;;;4971987;28;20408;-74
2023/11/03 02:17:42;;;;;;;2.53;0.32;;;8.80;99.90;;;;;;4970835;28;20121;-76
2023/11/03 02:20:08;;;;;;;4.00;0.60;;;8.80;99.90;;;;;;4974215;28;20117;-74
2023/11/03 02:22:38;;;;;;;4.35;0.75;;;8.80;99.90;;;;;;4985096;28;20041;-74
2023/11/03 02:25:03;;;;;;;4.13;0.97;;;8.80;99.90;;;;;;4989447;28;20052;-75
2023/11/03 02:27:30;;;;;;;1.88;0.57;;;8.70;99.90;;;;;;4986306;28;20117;-76
2023/11/03 02:29:56;;;;;;;2.97;0.75;;;8.70;99.90;;;;;;4969781;28;20039;-75
2023/11/03 02:32:22;;;;;;;1.40;0.40;;;8.70;99.90;;;;;;4980578;28;20746;-75
2023/11/03 02:34:48;;;;;;;5.53;0.98;;;8.80;99.90;;;;;;4988564;28;20488;-74
2023/11/03 02:37:13;;;;;;;3.65;0.40;;;8.70;99.90;;;;;;4989711;28;20064;-74
2023/11/03 02:39:40;;;;;;;6.60;0.70;;;8.70;99.90;;;;;;5005297;28;20046;-74
2023/11/03 02:42:06;;;;;;;4.43;0.80;;;8.70;99.90;;;;;;4990888;28;20749;-75
2023/11/03 02:44:32;;;;;;;5.30;0.50;;;8.70;99.90;;;;;;4988986;28;20571;-74
2023/11/03 02:46:58;;;;;;;4.35;0.70;;;8.70;99.90;;;;;;4988832;28;20121;-73
2023/11/03 02:49:24;;;;;;;4.97;0.68;;;8.70;99.90;;;;;;4989531;28;20117;-74
2023/11/03 02:51:49;;;;;;;3.67;0.22;;;8.70;99.90;;;;;;4969196;28;20039;-74
2023/11/03 02:54:15;;;;;;;4.68;0.65;;;8.80;99.90;;;;;;4970107;28;20504;-74
2023/11/03 02:56:41;;;;;;;5.60;0.70;;;8.70;99.90;;;;;;4970747;28;20081;-74
2023/11/03 02:59:08;;;;;;;2.80;0.35;;;8.70;99.90;;;;;;4989344;28;20554;-74
2023/11/03 03:01:37;;;;;;;6.72;0.52;;;8.80;99.90;;;;;;4990379;28;20041;-75
2023/11/03 03:04:03;;;;;;;3.40;1.30;;;8.80;99.90;;;;;;4984098;28;20035;-76
2023/11/03 03:06:29;;;;;;;2.85;0.82;;;8.80;99.90;;;;;;4975929;28;20118;-75
2023/11/03 03:08:55;;;;;;;4.25;0.93;;;8.80;99.90;;;;;;4975793;28;20571;-74
2023/11/03 03:11:20;;;;;;;7.70;1.30;;;8.80;99.90;;;;;;4973709;28;20047;-74
2023/11/03 03:13:46;;;;;;;2.53;0.35;;;8.80;99.90;;;;;;4968493;28;20113;-75
2023/11/03 03:16:15;;;;;;;2.13;0.38;;;8.80;99.90;;;;;;4987259;28;20096;-74
2023/11/03 03:18:41;;;;;;;4.00;0.93;;;8.80;99.90;;;;;;4985978;28;20111;-74
2023/11/03 03:21:07;;;;;;;8.60;0.50;;;8.70;99.90;;;;;;4986634;28;20038;-75
2023/11/03 03:23:32;;;;;;;2.08;0.40;;;8.70;99.90;;;;;;4987563;28;20031;-75
2023/11/03 03:25:58;;;;;;;5.60;0.73;;;8.70;99.90;;;;;;4989478;28;20713;-75
2023/11/03 03:28:23;;;;;;;2.45;0.60;;;8.70;99.90;;;;;;4988838;28;20023;-74
2023/11/03 03:30:49;;;;;;;4.90;0.45;;;8.70;99.90;;;;;;4968474;28;20035;-75
2023/11/03 03:33:14;;;;;;;4.68;0.57;;;8.70;99.90;;;;;;4987102;28;20037;-73
2023/11/03 03:35:40;;;;;;;1.10;0.20;;;8.70;99.90;;;;;;4987474;28;20449;-75
2023/11/03 03:38:05;;;;;;;6.22;0.47;;;8.70;99.90;;;;;;4988557;28;20391;-75
2023/11/03 03:40:31;;;;;;;2.20;0.70;;;8.60;99.90;;;;;;4988050;28;20026;-75
2023/11/03 03:42:59;;;;;;;5.15;0.50;;;8.60;99.90;;;;;;4975197;28;20030;-75
2023/11/03 03:45:25;;;;;;;2.50;0.60;;;8.60;99.90;;;;;;4988284;28;20109;-75
2023/11/03 03:47:51;;;;;;;5.13;0.73;;;8.60;99.90;;;;;;4987378;28;20126;-74
2023/11/03 03:50:16;;;;;;;8.55;0.38;;;8.60;99.90;;;;;;4988148;28;20065;-75
2023/11/03 03:52:42;;;;;;;2.40;0.22;;;8.60;99.90;;;;;;4968900;28;20043;-75
2023/11/03 03:55:07;;;;;;;6.28;0.32;;;8.60;99.90;;;;;;4987837;28;20496;-74
2023/11/03 03:57:33;;;;;;;8.02;1.40;;;8.70;99.90;;;;;;4987740;28;20041;-75
2023/11/03 03:59:58;;;;;;;2.15;0.20;;;8.60;99.90;;;;;;4972161;28;20102;-74
2023/11/03 04:02:24;;;;;;;4.53;0.70;;;8.60;99.90;;;;;;4969746;28;20062;-74
2023/11/03 04:04:50;;;;;;;7.32;1.00;;;8.60;99.90;;;;;;4981176;28;20030;-74
2023/11/03 04:07:16;;;;;;;3.90;0.60;;;8.60;99.90;;;;;;4990486;28;20403;-74
2023/11/03 04:09:41;;;;;;;6.70;1.13;;;8.70;99.90;;;;;;4987487;28;20460;-73
2023/11/03 04:12:07;;;;;;;6.18;0.80;;;8.60;99.90;;;;;;4988405;28;20030;-73
2023/11/03 04:14:33;;;;;;;5.07;0.30;;;8.60;99.90;;;;;;4987720;28;20034;-74
2023/11/03 04:16:58;;;;;;;6.45;0.70;;;8.60;99.90;;;;;;4987898;28;20635;-76
2023/11/03 04:19:24;;;;;;;2.22;0.35;;;8.60;99.90;;;;;;5004529;28;20513;-74
2023/11/03 04:21:50;;;;;;;9.75;1.58;;;8.60;99.90;;;;;;4985571;28;20049;-73
2023/11/03 04:24:15;;;;;;;5.80;0.60;;;8.60;99.90;;;;;;4987626;28;20089;-75
2023/11/03 04:26:41;;;;;;;5.32;0.95;;;8.60;99.90;;;;;;4986994;28;20042;-75
2023/11/03 04:29:07;;;;;;;3.75;0.98;;;8.60;99.90;;;;;;4969675;28;20030;-75
2023/11/03 04:31:34;;;;;;;1.95;0.63;;;8.60;99.90;;;;;;4970352;28;20026;-73
2023/11/03 04:34:00;;;;;;;6.72;0.85;;;8.60;99.90;;;;;;4986407;28;20034;-75
2023/11/03 04:36:25;;;;;;;10.63;1.35;;;8.70;99.90;;;;;;4988671;28;20408;-73
2023/11/03 04:38:51;;;;;;;5.32;0.85;;;8.60;99.90;;;;;;4986606;28;20042;-75
2023/11/03 04:41:17;;;;;;;6.20;0.90;;;8.70;99.90;;;;;;4983864;28;20054;-74
2023/11/03 04:43:44;;;;;;;4.30;0.80;;;8.60;99.90;;;;;;4966841;28;20516;-75
2023/11/03 04:46:09;;;;;;;10.68;1.42;;;8.70;99.90;;;;;;4967915;28;20034;-74
2023/11/03 04:48:37;;;;;;;7.88;0.73;;;8.70;99.90;;;;;;4975238;28;20376;-76
2023/11/03 04:51:03;;;;;;;8.93;0.73;;;8.70;99.90;;;;;;4985486;28;20575;-74
2023/11/03 04:53:28;;;;;;;10.40;1.15;;;8.70;99.90;;;;;;4975063;28;20125;-74
2023/11/03 04:55:54;;;;;;;11.18;1.05;;;8.70;99.90;;;;;;4986002;28;20033;-73
2023/11/03 04:58:20;;;;;;;9.60;1.05;;;8.70;99.90;;;;;;4971222;28;20090;-74
2023/11/03 05:00:47;;;;;;;5.10;0.60;;;8.70;99.90;;;;;;4966601;28;20027;-74
2023/11/03 05:03:14;;;;;;;6.70;0.75;;;8.70;99.90;;;;;;4967252;28;20121;-74
2023/11/03 05:05:41;;;;;;;9.35;1.30;;;8.70;99.90;;;;;;4968915;28;20504;-74
2023/11/03 05:08:08;;;;;;;6.82;0.90;;;8.70;99.90;;;;;;4969906;28;20031;-76
2023/11/03 05:10:33;;;;;;;5.97;0.60;;;8.60;99.90;;;;;;4966857;28;20126;-76
2023/11/03 05:13:00;;;;;;;2.80;0.52;;;8.70;99.90;;;;;;4975291;28;20117;-74
2023/11/03 05:15:26;;;;;;;12.55;2.10;;;8.70;99.90;;;;;;4988202;28;20034;-73
2023/11/03 05:17:52;;;;;;;11.80;1.17;;;8.70;99.90;;;;;;4985936;28;20041;-73
2023/11/03 05:20:19;;;;;;;3.92;0.40;;;8.70;99.90;;;;;;4986740;28;20031;-73
2023/11/03 05:22:45;;;;;;;6.38;0.80;;;8.70;99.90;;;;;;4985666;28;20058;-75
2023/11/03 05:25:10;;;;;;;6.22;0.57;;;8.70;99.90;;;;;;4986545;28;20360;-73
2023/11/03 05:27:36;;;;;;;1.73;0.35;;;8.70;99.90;;;;;;4986948;28;20054;-74
2023/11/03 05:30:02;;;;;;;10.57;0.70;;;8.70;99.90;;;;;;4986640;28;20731;-75
2023/11/03 05:32:27;;;;;;;6.40;0.60;;;8.70;99.90;;;;;;4986697;28;20029;-74
2023/11/03 05:34:53;;;;;;;8.32;0.77;;;8.70;99.90;;;;;;4981367;28;20050;-74
2023/11/03 05:37:19;;;;;;;7.20;1.02;;;8.70;99.90;;;;;;4986318;28;20054;-75
2023/11/03 05:39:44;;;;;;;4.47;0.70;;;8.70;99.90;;;;;;4985986;28;20071;-74
2023/11/03 05:42:10;;;;;;;7.80;1.17;;;8.60;99.90;;;;;;4986104;28;20492;-73
2023/11/03 05:44:35;;;;;;;6.13;0.73;;;8.60;99.90;;;;;;4986599;28;20435;-75
2023/11/03 05:47:01;;;;;;;7.68;1.00;;;8.60;99.90;;;;;;4989196;28;20054;-74
2023/11/03 05:49:27;;;;;;;6.65;1.42;;;8.60;99.90;;;;;;4990616;28;20038;-74
2023/11/03 05:51:53;;;;;;;5.97;0.95;;;8.60;99.90;;;;;;4990981;28;20033;-75
2023/11/03 05:54:19;;;;;;;8.18;0.63;;;8.60;99.90;;;;;;4977880;28;20027;-74
2023/11/03 05:56:45;;;;;;;14.88;2.45;;;8.60;99.90;;;;;;4969542;28;20042;-74
2023/11/03 05:59:11;;;;;;;10.98;1.65;;;8.60;99.90;;;;;;4974857;28;20042;-74
2023/11/03 06:01:37;;;;;;;8.93;1.83;;;8.70;99.90;;;;;;4981657;28;20047;-74
2023/11/03 06:04:02;;;;;;;15.05;1.42;;;8.60;99.90;;;;;;4984507;28;20038;-74
2023/11/03 06:06:28;;;;;;;7.70;0.80;;;8.70;99.90;;;;;;4990121;28;20413;-75
2023/11/03 06:08:55;;;;;;;4.50;0.90;;;8.70;99.90;;;;;;4989158;28;20053;-74
2023/11/03 06:11:21;;;;;;;11.60;1.60;;;8.70;99.90;;;;;;5005277;28;20042;-74
2023/11/03 06:13:47;;;;;;;6.43;1.42;;;8.60;99.90;;;;;;4970925;28;20042;-74
2023/11/03 06:16:13;;;;;;;4.20;1.10;;;8.70;99.90;;;;;;4970226;28;20053;-74
2023/11/03 06:18:40;;;;;;;7.85;1.80;;;8.70;99.90;;;;;;4980467;28;20419;-75
2023/11/03 06:21:06;;;;;;;7.63;1.63;;;8.70;99.90;;;;;;4989588;28;20045;-73
2023/11/03 06:23:32;;;;;;;3.15;0.95;;;8.60;99.90;;;;;;4989024;28;20075;-73
2023/11/03 06:25:57;;;;;;;7.15;0.93;;;8.70;99.90;;;;;;4988955;28;20078;-74
2023/11/03 06:28:23;;;;;;;14.65;2.38;;;8.70;99.90;;;;;;4990875;28;20057;-73
2023/11/03 06:30:49;;;;;;;13.48;2.15;;;8.70;99.90;;;;;;4990116;28;20041;-76
2023/11/03 06:33:15;;;;;;;13.35;1.63;;;8.70;99.90;;;;;;4989333;28;20032;-76
2023/11/03 06:35:41;;;;;;;9.20;1.60;;;8.70;99.90;;;;;;4988369;28;20030;-73
2023/11/03 06:38:06;;;;;;;8.43;1.50;;;8.70;99.90;;;;;;4989361;28;20586;-74
2023/11/03 06:40:33;;;;;;;8.77;1.35;;;8.70;99.90;;;;;;4990550;28;20049;-74
2023/11/03 06:42:59;;;;;;;8.18;1.20;;;8.70;99.90;;;;;;4988798;28;20486;-74
2023/11/03 06:45:25;;;;;;;8.50;2.10;;;8.80;99.90;;;;;;4984255;28;20122;-75
2023/11/03 06:47:50;;;;;;;13.00;1.90;;;8.80;99.90;;;;;;4974218;28;20373;-74
2023/11/03 06:50:16;;;;;;;9.07;1.35;;;8.80;99.90;;;;;;4977821;28;20130;-73
2023/11/03 06:52:42;;;;;;;10.45;1.55;;;8.80;99.90;;;;;;4977162;28;20058;-75
2023/11/03 06:55:08;;;;;;;10.13;1.60;;;8.80;99.90;;;;;;4989334;28;20089;-75
2023/11/03 06:57:35;;;;;;;7.80;1.73;;;8.70;99.90;;;;;;4988194;28;20018;-74
2023/11/03 07:00:00;;;;;;;17.17;1.80;;;8.80;99.90;;;;;;4978722;28;20758;-73
2023/11/03 07:02:26;;;;;;;13.05;1.67;;;8.80;99.90;;;;;;4983814;28;20400;-73
2023/11/03 07:04:52;;;;;;;10.43;2.05;;;8.80;99.90;;;;;;4970316;28;20485;-74
2023/11/03 07:07:18;;;;;;;6.80;1.58;;;8.80;99.90;;;;;;4975023;28;20030;-75
2023/11/03 07:09:44;;;;;;;9.43;1.95;;;8.80;99.90;;;;;;4968826;28;20053;-74
2023/11/03 07:12:10;;;;;;;13.48;4.28;;;8.80;99.90;;;;;;4985264;28;20050;-74
2023/11/03 07:14:35;;;;;;;12.35;1.65;;;8.80;99.90;;;;;;4976951;28;20039;-77
2023/11/03 07:17:02;;;;;;;10.43;1.45;;;8.80;99.90;;;;;;4977506;28;20092;-73
2023/11/03 07:19:28;;;;;;;15.60;2.58;;;8.80;99.90;;;;;;4976388;28;20081;-75
2023/11/03 07:21:54;;;;;;;18.15;1.98;;;8.80;99.90;;;;;;4986530;28;20436;-73
2023/11/03 07:24:23;;;;;;;23.67;3.20;;;8.80;99.90;;;;;;4988875;28;20030;-73
2023/11/03 07:26:52;;;;;;;9.70;2.10;;;8.80;99.90;;;;;;4968242;28;20050;-73
2023/11/03 07:29:18;;;;;;;11.82;1.80;;;8.80;99.90;;;;;;4982086;28;20041;-73
2023/11/03 07:31:44;;;;;;;9.40;1.42;;;8.80;99.90;;;;;;4987199;28;20038;-74
2023/11/03 07:34:10;;;;;;;13.85;1.98;;;8.80;99.90;;;;;;4988541;28;20026;-75
2023/11/03 07:36:36;;;;;;;15.38;1.48;;;8.90;99.90;;;;;;4987328;28;20042;-76
2023/11/03 07:39:05;;;;;;;10.73;1.75;;;8.90;99.90;;;;;;4988873;28;20042;-73
2023/11/03 07:41:34;;;;;;;8.13;1.48;;;8.90;99.90;;;;;;4987683;28;20173;-75
2023/11/03 07:44:00;;;;;;;10.18;1.17;;;8.80;99.90;;;;;;4993804;28;20491;-74
2023/11/03 07:46:30;;;;;;;12.40;1.45;;;8.90;99.90;;;;;;4982879;28;20030;-74
2023/11/03 07:48:59;;;;;;;7.72;1.52;;;8.80;99.90;;;;;;4987610;28;20027;-74
2023/11/03 07:51:25;;;;;;;15.45;1.27;;;8.80;99.90;;;;;;4988256;28;20026;-73
2023/11/03 07:53:52;;;;;;;11.57;1.75;;;8.90;99.90;;;;;;4987091;28;20049;-74
2023/11/03 07:56:17;;;;;;;15.38;2.00;;;8.80;99.90;;;;;;4979311;28;20074;-74
2023/11/03 07:58:44;;;;;;;9.98;2.22;;;8.90;99.90;;;;;;4984446;28;20066;-74
2023/11/03 08:01:10;;;;;;;7.90;0.80;;;8.90;99.90;;;;;;4989235;28;20034;-74
2023/11/03 08:03:35;;;;;;;9.05;1.52;;;8.90;99.90;;;;;;4974444;28;20050;-75
2023/11/03 08:06:01;;;;;;;10.02;1.40;;;8.90;99.90;;;;;;4988964;28;20030;-74
2023/11/03 08:08:27;;;;;;;9.45;1.48;;;8.90;99.90;;;;;;4973937;28;20058;-73
2023/11/03 08:10:52;;;;;;;9.02;1.30;;;9.00;99.90;;;;;;4987683;28;20219;-75
2023/11/03 08:13:22;;;;;;;19.50;3.05;;;9.00;99.90;;;;;;4984888;28;20081;-75
2023/11/03 08:15:48;;;;;;;16.92;2.97;;;9.00;99.90;;;;;;4987939;28;20039;-77
2023/11/03 08:18:13;;;;;;;7.38;1.02;;;8.90;99.90;;;;;;4989137;28;20033;-75
2023/11/03 08:20:39;;;;;;;14.20;1.92;;;9.00;99.90;;;;;;4986799;28;20041;-75
2023/11/03 08:23:05;;;;;;;9.35;2.03;;;9.00;99.90;;;;;;4987652;28;20473;-73
2023/11/03 08:25:31;;;;;;;15.20;1.98;;;9.00;99.90;;;;;;4987134;28;20062;-74
2023/11/03 08:27:57;;;;;;;16.38;1.83;;;9.00;99.90;;;;;;4987167;28;20056;-74
2023/11/03 08:30:23;;;;;;;9.98;1.85;;;9.10;99.90;;;;;;4985504;28;20036;-75
2023/11/03 08:32:50;;;;;;;22.02;2.80;;;9.10;99.90;;;;;;4979418;28;20091;-75
2023/11/03 08:35:18;;;;;;;10.13;1.45;;;9.10;99.90;;;;;;4979749;28;20077;-75
2023/11/03 08:37:44;;;;;;;7.60;1.15;;;9.10;99.90;;;;;;4981109;28;20039;-75
2023/11/03 08:40:10;;;;;;;16.35;1.38;;;9.10;99.90;;;;;;4970589;28;20014;-75
2023/11/03 08:42:35;;;;;;;9.35;1.77;;;9.10;99.90;;;;;;4985644;28;20068;-74
2023/11/03 08:45:01;;;;;;;12.40;2.30;;;9.10;99.90;;;;;;4985562;28;20094;-75
2023/11/03 08:47:28;;;;;;;18.55;2.28;;;9.10;99.90;;;;;;4986331;28;20030;-75
2023/11/03 08:49:56;;;;;;;10.02;1.92;;;9.20;99.90;;;;;;5001180;28;20125;-76
2023/11/03 08:52:21;;;;;;;15.77;2.63;;;9.20;99.90;;;;;;4987538;28;20037;-75
2023/11/03 08:54:47;;;;;;;13.68;2.25;;;9.20;99.90;;;;;;4996171;28;20030;-75
2023/11/03 08:57:13;;;;;;;13.45;1.77;;;9.30;99.90;;;;;;4985577;28;20511;-75
2023/11/03 08:59:38;;;;;;;10.57;1.85;;;9.30;99.90;;;;;;4984457;28;20050;-75
2023/11/03 09:02:05;;;;;;;8.23;1.17;;;9.40;99.90;;;;;;4987685;28;20058;-76
2023/11/03 09:04:31;;;;;;;12.15;2.08;;;9.40;99.90;;;;;;4985047;28;20062;-76
2023/11/03 09:06:57;;;;;;;14.13;1.85;;;9.40;99.90;;;;;;4985635;28;20061;-74
2023/11/03 09:09:22;;;;;;;16.25;1.38;;;9.50;99.90;;;;;;4985856;28;20030;-75
2023/11/03 09:11:48;;;;;;;11.82;1.65;;;9.70;99.90;;;;;;4972605;28;20053;-75
2023/11/03 09:14:14;;;;;;;12.85;1.05;;;9.70;99.90;;;;;;4985968;28;20023;-75
2023/11/03 09:16:39;;;;;;;9.02;1.77;;;9.80;99.90;;;;;;4984809;28;20109;-75
2023/11/03 09:19:06;;;;;;;15.23;2.35;;;9.80;99.90;;;;;;4969869;28;20041;-74
2023/11/03 09:21:32;;;;;;;8.95;0.93;;;9.90;99.90;;;;;;4979020;28;20034;-75
2023/11/03 09:23:59;;;;;;;8.55;1.80;;;9.90;99.90;;;;;;4987170;28;20470;-76
2023/11/03 09:26:24;;;;;;;11.98;1.00;;;10.00;99.90;;;;;;4987461;28;20573;-74
2023/11/03 09:28:50;;;;;;;16.10;2.63;;;10.00;99.90;;;;;;4982778;28;20137;-77
2023/11/03 09:31:16;;;;;;;5.50;0.80;;;10.00;99.90;;;;;;4979522;28;20035;-77
2023/11/03 09:33:42;;;;;;;20.52;1.85;;;10.10;99.90;;;;;;4987117;28;20558;-76
2023/11/03 09:36:09;;;;;;;17.42;1.65;;;10.10;99.90;;;;;;4983241;28;20046;-76
2023/11/03 09:38:35;;;;;;;10.70;2.33;;;10.10;99.90;;;;;;4976817;28;20093;-75
2023/11/03 09:41:01;;;;;;;10.73;2.03;;;10.10;99.90;;;;;;4985198;28;20026;-76
2023/11/03 09:43:29;;;;;;;8.50;1.10;;;10.20;99.90;;;;;;4982511;28;20728;-77
2023/11/03 09:45:55;;;;;;;9.35;2.00;;;10.20;99.90;;;;;;4981404;28;20501;-76
2023/11/03 09:48:22;;;;;;;5.45;0.73;;;10.20;99.90;;;;;;4981386;28;20030;-76
2023/11/03 09:50:48;;;;;;;10.57;1.20;;;10.20;99.90;;;;;;4989405;28;20042;-75
2023/11/03 09:53:25;;;;;;;12.10;1.27;;;10.20;99.90;;;;;;4980793;28;20034;-75
2023/11/03 09:55:51;;;;;;;10.80;1.75;;;10.20;99.90;;;;;;4979403;28;20078;-76
2023/11/03 09:58:17;;;;;;;12.60;1.75;;;10.20;99.90;;;;;;4974322;28;20046;-77
2023/11/03 10:00:44;;;;;;;8.38;1.40;;;10.20;99.90;;;;;;4982818;28;20085;-75
2023/11/03 10:03:09;;;;;;;7.90;1.00;;;10.20;99.90;;;;;;4980853;28;20030;-74
2023/11/03 10:05:35;;;;;;;4.53;1.00;;;10.30;99.90;;;;;;4981239;28;20047;-74
2023/11/03 10:08:05;;;;;;;16.67;1.88;;;10.40;99.90;;;;;;4983321;28;20110;-74
2023/11/03 10:10:35;;;;;;;12.88;1.85;;;10.50;99.90;;;;;;4982831;28;20035;-78
2023/11/03 10:13:06;;;;;;;10.88;1.15;;;10.60;99.90;;;;;;4974626;28;20027;-76
2023/11/03 10:15:34;;;;;;;8.48;1.60;;;10.60;99.90;;;;;;4975358;28;20050;-76
2023/11/03 10:18:00;;;;;;;12.98;1.95;;;10.90;99.90;;;;;;4970649;28;20120;-76
2023/11/03 10:20:25;;;;;;;21.90;1.90;;;11.00;99.90;;;;;;4977171;28;20507;-75
2023/11/03 10:22:51;;;;;;;15.60;3.05;;;11.10;99.90;;;;;;4983973;28;20022;-76
2023/11/03 10:25:21;;;;;;;11.52;1.70;;;11.30;99.90;;;;;;4976317;28;20039;-75
2023/11/03 10:27:48;;;;;;;15.07;1.47;;;11.30;99.90;;;;;;4970268;28;20035;-76
2023/11/03 10:30:18;;;;;;;13.52;2.15;;;11.40;99.90;;;;;;4981709;28;20265;-75
2023/11/03 10:32:44;;;;;;;9.97;1.10;;;11.50;99.90;;;;;;4978474;28;20042;-76
2023/11/03 10:35:11;;;;;;;9.50;1.10;;;11.40;99.90;;;;;;4979890;28;20031;-77
2023/11/03 10:37:38;;;;;;;8.75;1.88;;;11.50;99.90;;;;;;4987361;28;20035;-76
2023/11/03 10:40:05;;;;;;;8.13;1.58;;;11.40;99.90;;;;;;4983648;28;20046;-77
2023/11/03 10:42:35;;;;;;;8.45;1.40;;;11.40;99.90;;;;;;4982825;28;20407;-76
2023/11/03 10:45:04;;;;;;;9.18;1.85;;;11.30;99.90;;;;;;4980964;28;20035;-74
2023/11/03 10:47:37;;;;;;;6.00;1.17;;;11.30;99.90;;;;;;4981482;28;20488;-76
2023/11/03 10:50:08;;;;;;;9.52;1.20;;;11.30;99.90;;;;;;4977718;28;20447;-75
2023/11/03 10:52:49;;;;;;;8.32;1.40;;;11.30;99.90;;;;;;4985057;28;20117;-77
2023/11/03 10:55:18;;;;;;;;;;;11.20;99.90;;;;;;4992619;28;20034;-74
2023/11/03 10:57:44;;;;;;;8.27;1.05;;;11.10;99.90;;;;;;4984764;28;19925;-76
2023/11/03 11:00:17;;;;;;;11.00;3.10;;;11.00;99.90;;;;;;4986090;28;20042;-76
2023/11/03 11:03:19;;;;;;;11.05;2.20;;;10.90;99.90;;;;;;4981179;28;20038;-77
2023/11/03 11:05:51;;;;;;;14.18;2.75;;;10.80;99.90;;;;;;4978974;28;20039;-73
2023/11/03 11:08:18;;;;;;;14.05;1.55;;;10.80;99.90;;;;;;4980599;28;20078;-75
2023/11/03 11:10:45;;;;;;;8.95;1.13;;;10.70;99.90;;;;;;4983573;28;20049;-75
2023/11/03 11:13:18;;;;;;;8.05;1.48;;;10.60;99.90;;;;;;4985426;28;20026;-74
2023/11/03 11:15:56;;;;;;;10.00;1.55;;;10.60;99.90;;;;;;4977365;28;20038;-76
2023/11/03 11:18:28;;;;;;;8.10;1.00;;;10.60;99.90;;;;;;4978820;28;20063;-76
2023/11/03 11:20:57;;;;;;;6.93;1.98;;;10.70;99.90;;;;;;4989124;28;20034;-76
2023/11/03 11:23:23;;;;;;;6.65;1.55;;;10.60;99.90;;;;;;4982110;28;20652;-76
2023/11/03 11:25:50;;;;;;;6.97;1.48;;;10.60;99.90;;;;;;4970351;28;20099;-77
2023/11/03 11:28:40;;;;;;;8.07;1.30;;;10.70;99.90;;;;;;4985159;28;20050;-76
2023/11/03 11:31:39;;;;;;;9.77;1.65;;;10.70;99.90;;;;;;4981140;28;20046;-76
2023/11/03 11:34:16;;;;;;;4.57;1.00;;;10.70;99.90;;;;;;4944202;28;20496;-77
2023/11/03 11:36:43;;;;;;;7.65;0.88;;;10.70;99.90;;;;;;4986794;28;20046;-76
2023/11/03 11:39:13;;;;;;;10.35;1.08;;;10.70;99.90;;;;;;4983676;28;20828;-74
2023/11/03 11:41:48;;;;;;;6.32;1.05;;;10.80;99.90;;;;;;4982891;28;20504;-76
2023/11/03 11:44:19;;;;;;;9.32;1.65;;;10.70;99.90;;;;;;4987077;28;20373;-76
2023/11/03 11:46:46;;;;;;;;;;;10.60;99.90;;;;;;4984491;28;20042;-75
2023/11/03 11:49:15;;;;;;;9.38;1.27;;;10.60;99.90;;;;;;4974192;28;19918;-74
2023/11/03 11:51:40;;;;;;;6.68;1.05;;;10.60;99.90;;;;;;4976418;28;20069;-76
2023/11/03 11:54:10;;;;;;;8.45;1.55;;;10.70;99.90;;;;;;4981161;28;20058;-76
2023/11/03 11:56:36;;;;;;;11.10;1.25;;;10.60;99.90;;;;;;4982841;28;20076;-75
2023/11/03 11:59:06;;;;;;;4.40;1.33;;;10.70;99.90;;;;;;4984223;28;20039;-76
2023/11/03 12:01:33;;;;;;;6.67;1.00;;;10.80;99.90;;;;;;4979446;28;20066;-75
2023/11/03 12:04:02;;;;;;;6.07;1.40;;;10.70;99.90;;;;;;4980564;28;20314;-75
2023/11/03 12:06:33;;;;;;;9.48;1.30;;;10.70;99.90;;;;;;4972419;28;20033;-76
2023/11/03 12:08:58;;;;;;;8.43;1.50;;;10.80;99.90;;;;;;4983754;28;20031;-75
2023/11/03 12:11:25;;;;;;;6.53;0.70;;;10.90;99.90;;;;;;4972671;28;20033;-74
2023/11/03 12:13:50;;;;;;;5.57;0.75;;;10.90;99.90;;;;;;4977656;28;20527;-76
2023/11/03 12:16:19;;;;;;;10.23;1.45;;;10.90;99.90;;;;;;4979799;28;20046;-74
2023/11/03 12:18:44;;;;;;;10.15;1.25;;;11.00;99.90;;;;;;4978083;28;20103;-76
2023/11/03 12:21:10;;;;;;;12.60;1.52;;;11.10;99.90;;;;;;4983792;28;20070;-76
2023/11/03 12:23:38;;;;;;;8.13;1.42;;;11.10;99.90;;;;;;4983441;28;20116;-75
2023/11/03 12:26:05;;;;;;;12.95;1.08;;;11.10;99.90;;;;;;4982104;28;20039;-75
2023/11/03 12:28:31;;;;;;;6.53;1.50;;;11.20;99.90;;;;;;4976784;28;20042;-73
2023/11/03 12:30:59;;;;;;;10.68;1.25;;;11.20;99.90;;;;;;4975826;28;20138;-74
2023/11/03 12:33:27;;;;;;;8.45;1.75;;;11.30;99.90;;;;;;4985655;28;20041;-74
2023/11/03 12:35:54;;;;;;;11.95;1.17;;;11.30;99.90;;;;;;4982190;28;20399;-75
2023/11/03 12:38:20;;;;;;;7.88;1.27;;;11.40;99.90;;;;;;4981492;28;20104;-74
2023/11/03 12:40:47;;;;;;;8.88;1.33;;;11.40;99.90;;;;;;4984747;28;20043;-74
2023/11/03 12:43:14;;;;;;;6.95;1.05;;;11.40;99.90;;;;;;4980103;28;20046;-76
2023/11/03 12:45:40;;;;;;;10.30;0.95;;;11.40;99.90;;;;;;4978395;28;20043;-74
2023/11/03 12:48:24;;;;;;;10.95;1.00;;;11.50;99.90;;;;;;4983679;28;20037;-74
2023/11/03 12:50:55;;;;;;;6.82;0.77;;;11.50;99.90;;;;;;4984926;28;20508;-74